sensor_id;sensor_type;location;lat;lon;timestamp;temperature;humidity
72326;DHT22;60278;47.980;18.780;2022-10-15T00:03:29;9.67;98.17
72326;DHT22;60278;47.980;18.780;2022-10-15T00:07:00;9.61;97.79
72326;DHT22;60278;47.980;18.780;2022-10-15T00:10:31;9.35;98.28
72326;DHT22;60278;47.980;18.780;2022-10-15T00:14:02;9.38;98.36
72326;DHT22;60278;47.980;18.780;2022-10-15T00:17:34;9.41;98.82
72326;DHT22;60278;47.980;18.780;2022-10-15T00:21:07;9.37;99.43
72326;DHT22;60278;47.980;18.780;2022-10-15T00:24:39;9.28;97.98
72326;DHT22;60278;47.980;18.780;2022-10-15T00:28:10;9.61;97.16
72326;DHT22;60278;47.980;18.780;2022-10-15T00:31:41;9.55;98.33
72326;DHT22;60278;47.980;18.780;2022-10-15T00:35:12;9.52;98.10
72326;DHT22;60278;47.980;18.780;2022-10-15T00:38:43;9.68;97.23
72326;DHT22;60278;47.980;18.780;2022-10-15T00:42:15;9.59;97.92
72326;DHT22;60278;47.980;18.780;2022-10-15T00:45:46;9.58;97.25
72326;DHT22;60278;47.980;18.780;2022-10-15T00:53:02;9.81;97.06
72326;DHT22;60278;47.980;18.780;2022-10-15T00:56:36;9.83;97.74
72326;DHT22;60278;47.980;18.780;2022-10-15T01:00:11;9.88;98.37
72326;DHT22;60278;47.980;18.780;2022-10-15T01:03:43;9.88;98.15
72326;DHT22;60278;47.980;18.780;2022-10-15T01:07:14;9.86;98.61
72326;DHT22;60278;47.980;18.780;2022-10-15T01:18:43;9.59;98.77
72326;DHT22;60278;47.980;18.780;2022-10-15T01:26:53;9.33;98.63
72326;DHT22;60278;47.980;18.780;2022-10-15T01:30:38;9.44;97.71
72326;DHT22;60278;47.980;18.780;2022-10-15T01:34:25;9.64;97.25
72326;DHT22;60278;47.980;18.780;2022-10-15T01:41:53;9.51;98.50
72326;DHT22;60278;47.980;18.780;2022-10-15T01:45:32;9.61;98.19
72326;DHT22;60278;47.980;18.780;2022-10-15T01:49:43;9.59;98.32
72326;DHT22;60278;47.980;18.780;2022-10-15T01:53:19;9.57;97.78
72326;DHT22;60278;47.980;18.780;2022-10-15T01:56:57;9.41;98.25
72326;DHT22;60278;47.980;18.780;2022-10-15T02:00:28;9.59;97.89
72326;DHT22;60278;47.980;18.780;2022-10-15T02:03:59;9.61;97.29
72326;DHT22;60278;47.980;18.780;2022-10-15T02:11:14;9.57;97.20
72326;DHT22;60278;47.980;18.780;2022-10-15T02:14:59;9.54;97.39
72326;DHT22;60278;47.980;18.780;2022-10-15T02:18:38;9.64;97.61
72326;DHT22;60278;47.980;18.780;2022-10-15T02:22:25;9.68;97.69
72326;DHT22;60278;47.980;18.780;2022-10-15T02:25:58;9.64;97.63
72326;DHT22;60278;47.980;18.780;2022-10-15T02:29:32;9.65;97.56
72326;DHT22;60278;47.980;18.780;2022-10-15T02:33:04;9.62;97.64
72326;DHT22;60278;47.980;18.780;2022-10-15T02:36:38;9.67;97.59
72326;DHT22;60278;47.980;18.780;2022-10-15T02:40:11;9.70;97.76
72326;DHT22;60278;47.980;18.780;2022-10-15T02:43:42;9.52;98.30
72326;DHT22;60278;47.980;18.780;2022-10-15T02:47:16;9.61;98.34
72326;DHT22;60278;47.980;18.780;2022-10-15T02:50:47;9.70;97.94
72326;DHT22;60278;47.980;18.780;2022-10-15T02:54:18;9.62;98.23
72326;DHT22;60278;47.980;18.780;2022-10-15T02:57:51;9.68;97.87
72326;DHT22;60278;47.980;18.780;2022-10-15T03:01:22;9.59;97.93
72326;DHT22;60278;47.980;18.780;2022-10-15T03:04:53;9.62;97.83
72326;DHT22;60278;47.980;18.780;2022-10-15T03:08:25;9.58;97.99
72326;DHT22;60278;47.980;18.780;2022-10-15T03:11:56;9.61;97.93
72326;DHT22;60278;47.980;18.780;2022-10-15T03:15:27;9.62;98.10
72326;DHT22;60278;47.980;18.780;2022-10-15T03:18:59;9.57;98.19
72326;DHT22;60278;47.980;18.780;2022-10-15T03:22:30;9.55;98.13
72326;DHT22;60278;47.980;18.780;2022-10-15T03:26:02;9.55;98.45
72326;DHT22;60278;47.980;18.780;2022-10-15T03:29:33;9.62;98.46
72326;DHT22;60278;47.980;18.780;2022-10-15T03:33:07;9.61;98.48
72326;DHT22;60278;47.980;18.780;2022-10-15T03:36:39;9.68;98.07
72326;DHT22;60278;47.980;18.780;2022-10-15T03:40:13;9.70;98.33
72326;DHT22;60278;47.980;18.780;2022-10-15T03:43:44;9.64;98.46
72326;DHT22;60278;47.980;18.780;2022-10-15T03:47:16;9.67;97.99
72326;DHT22;60278;47.980;18.780;2022-10-15T03:50:52;9.71;98.15
72326;DHT22;60278;47.980;18.780;2022-10-15T03:54:24;9.79;98.43
72326;DHT22;60278;47.980;18.780;2022-10-15T03:57:56;9.83;97.98
72326;DHT22;60278;47.980;18.780;2022-10-15T04:01:27;9.81;98.22
72326;DHT22;60278;47.980;18.780;2022-10-15T04:04:59;9.83;98.08
72326;DHT22;60278;47.980;18.780;2022-10-15T04:08:31;9.93;98.08
72326;DHT22;60278;47.980;18.780;2022-10-15T04:12:02;9.86;98.26
72326;DHT22;60278;47.980;18.780;2022-10-15T04:15:33;9.81;98.41
72326;DHT22;60278;47.980;18.780;2022-10-15T04:19:08;9.88;98.11
72326;DHT22;60278;47.980;18.780;2022-10-15T04:22:40;9.85;97.86
72326;DHT22;60278;47.980;18.780;2022-10-15T04:26:11;9.79;98.06
72326;DHT22;60278;47.980;18.780;2022-10-15T04:29:42;9.74;98.19
72326;DHT22;60278;47.980;18.780;2022-10-15T04:33:19;9.86;97.88
72326;DHT22;60278;47.980;18.780;2022-10-15T04:36:50;9.82;97.81
72326;DHT22;60278;47.980;18.780;2022-10-15T04:40:24;9.72;98.52
72326;DHT22;60278;47.980;18.780;2022-10-15T04:43:57;9.52;99.16
72326;DHT22;60278;47.980;18.780;2022-10-15T04:47:28;9.43;99.34
72326;DHT22;60278;47.980;18.780;2022-10-15T04:51:13;9.26;99.06
72326;DHT22;60278;47.980;18.780;2022-10-15T04:55:02;9.27;99.22
72326;DHT22;60278;47.980;18.780;2022-10-15T04:58:35;9.33;99.11
72326;DHT22;60278;47.980;18.780;2022-10-15T05:02:06;9.43;98.58
72326;DHT22;60278;47.980;18.780;2022-10-15T05:05:38;9.34;98.81
72326;DHT22;60278;47.980;18.780;2022-10-15T05:09:09;9.65;98.21
72326;DHT22;60278;47.980;18.780;2022-10-15T05:12:40;9.71;97.97
72326;DHT22;60278;47.980;18.780;2022-10-15T05:16:23;9.48;97.94
72326;DHT22;60278;47.980;18.780;2022-10-15T05:19:54;9.09;99.17
72326;DHT22;60278;47.980;18.780;2022-10-15T05:23:30;8.94;98.77
72326;DHT22;60278;47.980;18.780;2022-10-15T05:27:14;8.99;98.88
72326;DHT22;60278;47.980;18.780;2022-10-15T05:30:46;8.94;98.92
72326;DHT22;60278;47.980;18.780;2022-10-15T05:34:17;9.07;98.22
72326;DHT22;60278;47.980;18.780;2022-10-15T05:37:59;9.12;97.29
72326;DHT22;60278;47.980;18.780;2022-10-15T05:41:30;9.27;96.84
72326;DHT22;60278;47.980;18.780;2022-10-15T05:45:01;9.09;97.90
72326;DHT22;60278;47.980;18.780;2022-10-15T05:48:32;9.30;97.88
72326;DHT22;60278;47.980;18.780;2022-10-15T05:52:03;9.41;97.80
72326;DHT22;60278;47.980;18.780;2022-10-15T05:56:00;9.70;97.43
72326;DHT22;60278;47.980;18.780;2022-10-15T05:59:35;9.74;97.95
72326;DHT22;60278;47.980;18.780;2022-10-15T06:03:12;9.85;97.51
72326;DHT22;60278;47.980;18.780;2022-10-15T06:06:44;10.13;96.64
72326;DHT22;60278;47.980;18.780;2022-10-15T06:10:15;10.24;96.01
72326;DHT22;60278;47.980;18.780;2022-10-15T06:13:46;10.22;96.16
72326;DHT22;60278;47.980;18.780;2022-10-15T06:17:17;10.10;97.19
72326;DHT22;60278;47.980;18.780;2022-10-15T06:20:53;10.06;97.89
72326;DHT22;60278;47.980;18.780;2022-10-15T06:24:24;10.39;96.68
72326;DHT22;60278;47.980;18.780;2022-10-15T06:27:55;10.33;97.30
72326;DHT22;60278;47.980;18.780;2022-10-15T06:31:31;10.59;96.67
72326;DHT22;60278;47.980;18.780;2022-10-15T06:35:02;10.53;97.00
72326;DHT22;60278;47.980;18.780;2022-10-15T06:38:35;10.53;97.37
72326;DHT22;60278;47.980;18.780;2022-10-15T06:42:06;10.54;97.24
72326;DHT22;60278;47.980;18.780;2022-10-15T06:45:43;10.88;97.08
72326;DHT22;60278;47.980;18.780;2022-10-15T06:49:20;10.92;97.09
72326;DHT22;60278;47.980;18.780;2022-10-15T06:52:51;11.01;97.00
72326;DHT22;60278;47.980;18.780;2022-10-15T06:56:22;10.98;97.35
72326;DHT22;60278;47.980;18.780;2022-10-15T06:59:54;11.10;97.36
72326;DHT22;60278;47.980;18.780;2022-10-15T07:03:25;11.23;97.38
72326;DHT22;60278;47.980;18.780;2022-10-15T07:06:56;11.70;95.83
72326;DHT22;60278;47.980;18.780;2022-10-15T07:10:28;12.01;94.92
72326;DHT22;60278;47.980;18.780;2022-10-15T07:13:59;12.20;94.62
72326;DHT22;60278;47.980;18.780;2022-10-15T07:17:30;12.88;92.54
72326;DHT22;60278;47.980;18.780;2022-10-15T07:21:03;13.40;90.45
72326;DHT22;60278;47.980;18.780;2022-10-15T07:24:34;13.68;89.72
72326;DHT22;60278;47.980;18.780;2022-10-15T07:28:06;13.97;88.87
72326;DHT22;60278;47.980;18.780;2022-10-15T07:31:37;13.89;89.02
72326;DHT22;60278;47.980;18.780;2022-10-15T07:35:08;13.95;89.73
72326;DHT22;60278;47.980;18.780;2022-10-15T07:38:40;13.94;90.20
72326;DHT22;60278;47.980;18.780;2022-10-15T07:42:11;14.30;88.74
72326;DHT22;60278;47.980;18.780;2022-10-15T07:45:46;14.40;88.27
72326;DHT22;60278;47.980;18.780;2022-10-15T07:49:18;14.46;88.29
72326;DHT22;60278;47.980;18.780;2022-10-15T07:52:51;14.73;87.30
72326;DHT22;60278;47.980;18.780;2022-10-15T07:56:22;15.02;86.36
72326;DHT22;60278;47.980;18.780;2022-10-15T07:59:53;14.98;85.02
72326;DHT22;60278;47.980;18.780;2022-10-15T08:03:24;15.28;84.92
72326;DHT22;60278;47.980;18.780;2022-10-15T08:06:55;15.27;84.83
72326;DHT22;60278;47.980;18.780;2022-10-15T08:10:26;15.24;84.48
72326;DHT22;60278;47.980;18.780;2022-10-15T08:13:58;15.43;84.60
72326;DHT22;60278;47.980;18.780;2022-10-15T08:17:29;15.61;83.39
72326;DHT22;60278;47.980;18.780;2022-10-15T08:21:00;15.69;82.35
72326;DHT22;60278;47.980;18.780;2022-10-15T08:24:32;15.82;83.10
72326;DHT22;60278;47.980;18.780;2022-10-15T08:28:03;15.48;83.60
72326;DHT22;60278;47.980;18.780;2022-10-15T08:31:34;15.56;82.91
72326;DHT22;60278;47.980;18.780;2022-10-15T08:35:06;15.55;83.40
72326;DHT22;60278;47.980;18.780;2022-10-15T08:38:37;15.79;83.16
72326;DHT22;60278;47.980;18.780;2022-10-15T08:42:21;16.11;80.97
72326;DHT22;60278;47.980;18.780;2022-10-15T08:46:00;16.52;78.90
72326;DHT22;60278;47.980;18.780;2022-10-15T08:49:48;16.31;77.95
72326;DHT22;60278;47.980;18.780;2022-10-15T08:53:21;16.79;77.55
72326;DHT22;60278;47.980;18.780;2022-10-15T08:57:10;17.18;75.31
72326;DHT22;60278;47.980;18.780;2022-10-15T09:00:54;17.34;76.26
72326;DHT22;60278;47.980;18.780;2022-10-15T09:04:55;17.78;74.74
72326;DHT22;60278;47.980;18.780;2022-10-15T09:08:40;18.06;70.34
72326;DHT22;60278;47.980;18.780;2022-10-15T09:16:15;17.87;70.36
72326;DHT22;60278;47.980;18.780;2022-10-15T09:19:54;17.75;68.32
72326;DHT22;60278;47.980;18.780;2022-10-15T09:23:27;17.63;68.74
72326;DHT22;60278;47.980;18.780;2022-10-15T09:30:51;17.78;68.00
72326;DHT22;60278;47.980;18.780;2022-10-15T09:45:46;18.02;67.48
72326;DHT22;60278;47.980;18.780;2022-10-15T09:49:25;18.11;66.48
72326;DHT22;60278;47.980;18.780;2022-10-15T09:56:52;18.70;67.13
72326;DHT22;60278;47.980;18.780;2022-10-15T10:00:24;18.77;66.83
72326;DHT22;60278;47.980;18.780;2022-10-15T10:04:19;18.48;65.55
72326;DHT22;60278;47.980;18.780;2022-10-15T10:08:09;18.33;66.74
72326;DHT22;60278;47.980;18.780;2022-10-15T10:11:56;18.24;68.52
72326;DHT22;60278;47.980;18.780;2022-10-15T10:15:34;18.36;66.74
72326;DHT22;60278;47.980;18.780;2022-10-15T10:19:13;18.49;67.21
72326;DHT22;60278;47.980;18.780;2022-10-15T10:22:53;18.56;65.65
72326;DHT22;60278;47.980;18.780;2022-10-15T10:26:25;18.77;64.80
72326;DHT22;60278;47.980;18.780;2022-10-15T10:29:59;18.87;65.78
72326;DHT22;60278;47.980;18.780;2022-10-15T10:33:36;18.69;66.58
72326;DHT22;60278;47.980;18.780;2022-10-15T10:37:07;18.59;64.70
72326;DHT22;60278;47.980;18.780;2022-10-15T10:40:40;18.52;65.53
72326;DHT22;60278;47.980;18.780;2022-10-15T10:44:35;18.50;64.79
72326;DHT22;60278;47.980;18.780;2022-10-15T10:48:49;18.86;62.96
72326;DHT22;60278;47.980;18.780;2022-10-15T10:52:25;19.28;63.36
72326;DHT22;60278;47.980;18.780;2022-10-15T10:55:57;19.15;62.86
72326;DHT22;60278;47.980;18.780;2022-10-15T10:59:36;19.30;63.43
72326;DHT22;60278;47.980;18.780;2022-10-15T11:03:30;18.97;62.78
72326;DHT22;60278;47.980;18.780;2022-10-15T11:07:16;18.66;61.92
72326;DHT22;60278;47.980;18.780;2022-10-15T11:22:48;18.74;61.13
72326;DHT22;60278;47.980;18.780;2022-10-15T11:34:09;19.01;63.40
72326;DHT22;60278;47.980;18.780;2022-10-15T11:38:02;18.83;63.38
72326;DHT22;60278;47.980;18.780;2022-10-15T11:59:50;19.35;60.71
72326;DHT22;60278;47.980;18.780;2022-10-15T12:03:26;19.10;60.85
72326;DHT22;60278;47.980;18.780;2022-10-15T12:07:01;18.97;62.40
72326;DHT22;60278;47.980;18.780;2022-10-15T12:14:37;18.71;61.78
72326;DHT22;60278;47.980;18.780;2022-10-15T12:29:19;18.53;62.91
72326;DHT22;60278;47.980;18.780;2022-10-15T12:32:50;18.36;62.00
72326;DHT22;60278;47.980;18.780;2022-10-15T12:36:29;18.29;62.89
72326;DHT22;60278;47.980;18.780;2022-10-15T12:40:04;18.16;62.38
72326;DHT22;60278;47.980;18.780;2022-10-15T12:43:40;18.09;62.91
72326;DHT22;60278;47.980;18.780;2022-10-15T12:47:11;18.01;63.47
72326;DHT22;60278;47.980;18.780;2022-10-15T12:50:43;17.98;64.14
72326;DHT22;60278;47.980;18.780;2022-10-15T12:54:33;18.02;64.33
72326;DHT22;60278;47.980;18.780;2022-10-15T13:01:57;18.06;64.33
72326;DHT22;60278;47.980;18.780;2022-10-15T13:05:30;18.00;65.53
72326;DHT22;60278;47.980;18.780;2022-10-15T13:12:39;17.87;65.60
72326;DHT22;60278;47.980;18.780;2022-10-15T13:16:11;17.77;65.39
72326;DHT22;60278;47.980;18.780;2022-10-15T13:19:57;17.77;65.58
72326;DHT22;60278;47.980;18.780;2022-10-15T13:23:31;17.87;65.11
72326;DHT22;60278;47.980;18.780;2022-10-15T13:27:02;17.82;66.14
72326;DHT22;60278;47.980;18.780;2022-10-15T13:30:35;17.82;66.51
72326;DHT22;60278;47.980;18.780;2022-10-15T13:34:13;17.73;67.44
72326;DHT22;60278;47.980;18.780;2022-10-15T13:37:46;17.77;66.34
72326;DHT22;60278;47.980;18.780;2022-10-15T13:41:23;17.81;66.63
72326;DHT22;60278;47.980;18.780;2022-10-15T13:44:59;17.82;65.83
72326;DHT22;60278;47.980;18.780;2022-10-15T13:48:31;17.77;67.83
72326;DHT22;60278;47.980;18.780;2022-10-15T13:52:03;17.90;66.02
72326;DHT22;60278;47.980;18.780;2022-10-15T13:55:36;17.88;66.32
72326;DHT22;60278;47.980;18.780;2022-10-15T13:59:16;17.90;65.80
72326;DHT22;60278;47.980;18.780;2022-10-15T14:03:21;17.87;65.40
72326;DHT22;60278;47.980;18.780;2022-10-15T14:07:01;17.81;66.60
72326;DHT22;60278;47.980;18.780;2022-10-15T14:10:32;17.75;67.22
72326;DHT22;60278;47.980;18.780;2022-10-15T14:18:00;17.63;67.10
72326;DHT22;60278;47.980;18.780;2022-10-15T14:21:33;17.64;66.58
72326;DHT22;60278;47.980;18.780;2022-10-15T14:25:08;17.64;66.30
72326;DHT22;60278;47.980;18.780;2022-10-15T14:28:40;17.55;67.26
72326;DHT22;60278;47.980;18.780;2022-10-15T14:36:30;17.53;67.73
72326;DHT22;60278;47.980;18.780;2022-10-15T14:43:43;17.55;67.46
72326;DHT22;60278;47.980;18.780;2022-10-15T14:47:23;17.54;67.22
72326;DHT22;60278;47.980;18.780;2022-10-15T14:50:59;17.44;68.49
72326;DHT22;60278;47.980;18.780;2022-10-15T14:54:37;17.43;68.37
72326;DHT22;60278;47.980;18.780;2022-10-15T14:58:16;17.33;68.89
72326;DHT22;60278;47.980;18.780;2022-10-15T15:01:56;17.36;68.49
72326;DHT22;60278;47.980;18.780;2022-10-15T15:05:29;17.36;68.62
72326;DHT22;60278;47.980;18.780;2022-10-15T15:09:00;17.33;68.66
72326;DHT22;60278;47.980;18.780;2022-10-15T15:12:32;17.27;69.32
72326;DHT22;60278;47.980;18.780;2022-10-15T15:16:04;17.20;69.17
72326;DHT22;60278;47.980;18.780;2022-10-15T15:19:35;17.12;70.07
72326;DHT22;60278;47.980;18.780;2022-10-15T15:23:11;17.02;70.79
72326;DHT22;60278;47.980;18.780;2022-10-15T15:26:44;16.91;71.86
72326;DHT22;60278;47.980;18.780;2022-10-15T15:30:21;16.85;71.62
72326;DHT22;60278;47.980;18.780;2022-10-15T15:33:52;16.85;71.58
72326;DHT22;60278;47.980;18.780;2022-10-15T15:37:24;16.83;71.49
72326;DHT22;60278;47.980;18.780;2022-10-15T15:41:02;16.82;71.32
72326;DHT22;60278;47.980;18.780;2022-10-15T15:44:34;16.83;70.72
72326;DHT22;60278;47.980;18.780;2022-10-15T15:48:05;16.82;70.96
72326;DHT22;60278;47.980;18.780;2022-10-15T15:51:36;16.79;70.84
72326;DHT22;60278;47.980;18.780;2022-10-15T15:55:08;16.73;70.91
72326;DHT22;60278;47.980;18.780;2022-10-15T15:58:39;16.78;70.36
72326;DHT22;60278;47.980;18.780;2022-10-15T16:02:10;16.68;71.03
72326;DHT22;60278;47.980;18.780;2022-10-15T16:05:42;16.68;71.16
72326;DHT22;60278;47.980;18.780;2022-10-15T16:09:16;16.69;70.95
72326;DHT22;60278;47.980;18.780;2022-10-15T16:12:48;16.71;70.38
72326;DHT22;60278;47.980;18.780;2022-10-15T16:16:19;16.64;70.73
72326;DHT22;60278;47.980;18.780;2022-10-15T16:19:50;16.51;71.65
72326;DHT22;60278;47.980;18.780;2022-10-15T16:23:21;16.50;71.12
72326;DHT22;60278;47.980;18.780;2022-10-15T16:26:52;16.52;71.25
72326;DHT22;60278;47.980;18.780;2022-10-15T16:30:23;16.61;70.80
72326;DHT22;60278;47.980;18.780;2022-10-15T16:33:55;16.60;70.37
72326;DHT22;60278;47.980;18.780;2022-10-15T16:37:26;16.65;69.95
72326;DHT22;60278;47.980;18.780;2022-10-15T16:40:57;16.58;70.51
72326;DHT22;60278;47.980;18.780;2022-10-15T16:44:28;16.61;70.10
72326;DHT22;60278;47.980;18.780;2022-10-15T16:47:59;16.61;69.91
72326;DHT22;60278;47.980;18.780;2022-10-15T16:51:30;16.64;69.72
72326;DHT22;60278;47.980;18.780;2022-10-15T16:55:01;16.57;70.24
72326;DHT22;60278;47.980;18.780;2022-10-15T16:58:33;16.62;69.66
72326;DHT22;60278;47.980;18.780;2022-10-15T17:02:04;16.60;70.02
72326;DHT22;60278;47.980;18.780;2022-10-15T17:05:35;16.57;70.48
72326;DHT22;60278;47.980;18.780;2022-10-15T17:09:07;16.65;69.64
72326;DHT22;60278;47.980;18.780;2022-10-15T17:12:38;16.60;69.92
72326;DHT22;60278;47.980;18.780;2022-10-15T17:19:43;16.48;70.24
72326;DHT22;60278;47.980;18.780;2022-10-15T17:23:15;16.47;70.44
72326;DHT22;60278;47.980;18.780;2022-10-15T17:26:46;16.57;69.86
72326;DHT22;60278;47.980;18.780;2022-10-15T17:30:17;16.57;69.80
72326;DHT22;60278;47.980;18.780;2022-10-15T17:33:53;16.50;70.15
72326;DHT22;60278;47.980;18.780;2022-10-15T17:37:25;16.34;71.88
72326;DHT22;60278;47.980;18.780;2022-10-15T17:40:57;16.24;72.00
72326;DHT22;60278;47.980;18.780;2022-10-15T17:44:28;16.31;71.44
72326;DHT22;60278;47.980;18.780;2022-10-15T17:47:59;16.21;72.04
72326;DHT22;60278;47.980;18.780;2022-10-15T17:51:31;16.18;72.25
72326;DHT22;60278;47.980;18.780;2022-10-15T17:55:03;16.18;72.27
72326;DHT22;60278;47.980;18.780;2022-10-15T17:58:34;16.20;72.17
72326;DHT22;60278;47.980;18.780;2022-10-15T18:02:05;16.22;71.22
72326;DHT22;60278;47.980;18.780;2022-10-15T18:05:40;16.27;72.10
72326;DHT22;60278;47.980;18.780;2022-10-15T18:09:11;16.09;74.66
72326;DHT22;60278;47.980;18.780;2022-10-15T18:12:43;15.87;75.19
72326;DHT22;60278;47.980;18.780;2022-10-15T18:16:14;16.01;73.61
72326;DHT22;60278;47.980;18.780;2022-10-15T18:19:45;15.90;74.21
72326;DHT22;60278;47.980;18.780;2022-10-15T18:23:16;15.86;75.00
72326;DHT22;60278;47.980;18.780;2022-10-15T18:26:47;15.85;74.66
72326;DHT22;60278;47.980;18.780;2022-10-15T18:30:18;15.78;75.16
72326;DHT22;60278;47.980;18.780;2022-10-15T18:33:52;15.97;72.97
72326;DHT22;60278;47.980;18.780;2022-10-15T18:37:23;16.37;70.71
72326;DHT22;60278;47.980;18.780;2022-10-15T18:40:54;16.68;69.47
72326;DHT22;60278;47.980;18.780;2022-10-15T18:44:27;16.71;69.21
72326;DHT22;60278;47.980;18.780;2022-10-15T18:47:59;16.75;69.27
72326;DHT22;60278;47.980;18.780;2022-10-15T18:51:30;16.57;71.37
72326;DHT22;60278;47.980;18.780;2022-10-15T18:55:01;16.37;71.81
72326;DHT22;60278;47.980;18.780;2022-10-15T18:58:32;16.22;72.21
72326;DHT22;60278;47.980;18.780;2022-10-15T19:02:04;16.21;72.11
72326;DHT22;60278;47.980;18.780;2022-10-15T19:05:37;16.27;71.89
72326;DHT22;60278;47.980;18.780;2022-10-15T19:09:16;16.42;71.07
72326;DHT22;60278;47.980;18.780;2022-10-15T19:12:47;16.28;71.89
72326;DHT22;60278;47.980;18.780;2022-10-15T19:16:18;16.35;71.22
72326;DHT22;60278;47.980;18.780;2022-10-15T19:19:49;16.37;71.19
72326;DHT22;60278;47.980;18.780;2022-10-15T19:23:20;16.47;70.37
72326;DHT22;60278;47.980;18.780;2022-10-15T19:26:52;16.37;71.31
72326;DHT22;60278;47.980;18.780;2022-10-15T19:30:23;16.42;70.98
72326;DHT22;60278;47.980;18.780;2022-10-15T19:33:54;16.45;70.50
72326;DHT22;60278;47.980;18.780;2022-10-15T19:37:27;16.48;70.75
72326;DHT22;60278;47.980;18.780;2022-10-15T19:41:01;16.38;71.26
72326;DHT22;60278;47.980;18.780;2022-10-15T19:44:33;16.32;71.69
72326;DHT22;60278;47.980;18.780;2022-10-15T19:48:05;16.30;71.73
72326;DHT22;60278;47.980;18.780;2022-10-15T19:51:36;16.24;72.07
72326;DHT22;60278;47.980;18.780;2022-10-15T19:55:07;16.21;72.25
72326;DHT22;60278;47.980;18.780;2022-10-15T19:58:39;16.20;72.28
72326;DHT22;60278;47.980;18.780;2022-10-15T20:02:10;16.18;72.24
72326;DHT22;60278;47.980;18.780;2022-10-15T20:05:43;16.11;72.62
72326;DHT22;60278;47.980;18.780;2022-10-15T20:09:14;16.04;74.11
72326;DHT22;60278;47.980;18.780;2022-10-15T20:12:45;15.73;76.28
72326;DHT22;60278;47.980;18.780;2022-10-15T20:16:16;15.65;76.80
72326;DHT22;60278;47.980;18.780;2022-10-15T20:19:48;15.52;77.71
72326;DHT22;60278;47.980;18.780;2022-10-15T20:23:19;15.46;76.51
72326;DHT22;60278;47.980;18.780;2022-10-15T20:26:52;15.41;77.74
72326;DHT22;60278;47.980;18.780;2022-10-15T20:30:23;15.48;75.98
72326;DHT22;60278;47.980;18.780;2022-10-15T20:33:54;15.51;75.86
72326;DHT22;60278;47.980;18.780;2022-10-15T20:37:26;15.55;76.02
72326;DHT22;60278;47.980;18.780;2022-10-15T20:40:57;15.43;76.51
72326;DHT22;60278;47.980;18.780;2022-10-15T20:44:28;15.38;77.22
72326;DHT22;60278;47.980;18.780;2022-10-15T20:47:59;15.34;77.71
72326;DHT22;60278;47.980;18.780;2022-10-15T20:51:30;15.21;79.30
72326;DHT22;60278;47.980;18.780;2022-10-15T20:55:01;15.12;80.67
72326;DHT22;60278;47.980;18.780;2022-10-15T20:58:33;15.04;81.95
72326;DHT22;60278;47.980;18.780;2022-10-15T21:02:04;15.01;80.85
72326;DHT22;60278;47.980;18.780;2022-10-15T21:05:35;14.80;81.48
72326;DHT22;60278;47.980;18.780;2022-10-15T21:09:06;14.87;81.94
72326;DHT22;60278;47.980;18.780;2022-10-15T21:12:37;14.90;81.36
72326;DHT22;60278;47.980;18.780;2022-10-15T21:16:09;15.00;81.42
72326;DHT22;60278;47.980;18.780;2022-10-15T21:19:40;14.90;81.27
72326;DHT22;60278;47.980;18.780;2022-10-15T21:23:11;14.79;82.67
72326;DHT22;60278;47.980;18.780;2022-10-15T21:26:43;14.81;82.10
72326;DHT22;60278;47.980;18.780;2022-10-15T21:30:14;14.79;82.55
72326;DHT22;60278;47.980;18.780;2022-10-15T21:33:45;14.77;82.00
72326;DHT22;60278;47.980;18.780;2022-10-15T21:37:16;14.90;81.56
72326;DHT22;60278;47.980;18.780;2022-10-15T21:40:48;14.71;82.59
72326;DHT22;60278;47.980;18.780;2022-10-15T21:44:20;14.74;82.31
72326;DHT22;60278;47.980;18.780;2022-10-15T21:47:51;14.79;82.42
72326;DHT22;60278;47.980;18.780;2022-10-15T21:51:27;14.77;82.05
72326;DHT22;60278;47.980;18.780;2022-10-15T21:54:59;14.87;82.72
72326;DHT22;60278;47.980;18.780;2022-10-15T21:58:31;14.69;83.67
72326;DHT22;60278;47.980;18.780;2022-10-15T22:02:02;14.59;83.76
72326;DHT22;60278;47.980;18.780;2022-10-15T22:05:33;14.57;84.24
72326;DHT22;60278;47.980;18.780;2022-10-15T22:09:04;14.52;84.46
72326;DHT22;60278;47.980;18.780;2022-10-15T22:12:35;14.59;83.83
72326;DHT22;60278;47.980;18.780;2022-10-15T22:16:07;14.67;83.70
72326;DHT22;60278;47.980;18.780;2022-10-15T22:19:39;14.61;84.16
72326;DHT22;60278;47.980;18.780;2022-10-15T22:23:10;14.71;83.96
72326;DHT22;60278;47.980;18.780;2022-10-15T22:26:44;14.56;85.03
72326;DHT22;60278;47.980;18.780;2022-10-15T22:30:16;14.67;84.03
72326;DHT22;60278;47.980;18.780;2022-10-15T22:33:47;14.64;84.25
72326;DHT22;60278;47.980;18.780;2022-10-15T22:37:18;14.57;84.92
72326;DHT22;60278;47.980;18.780;2022-10-15T22:40:53;14.61;84.37
72326;DHT22;60278;47.980;18.780;2022-10-15T22:44:24;14.61;84.61
72326;DHT22;60278;47.980;18.780;2022-10-15T22:47:55;14.64;83.90
72326;DHT22;60278;47.980;18.780;2022-10-15T22:51:26;14.63;84.19
72326;DHT22;60278;47.980;18.780;2022-10-15T22:54:58;14.57;84.79
72326;DHT22;60278;47.980;18.780;2022-10-15T22:58:31;14.56;85.00
72326;DHT22;60278;47.980;18.780;2022-10-15T23:02:02;14.57;84.90
72326;DHT22;60278;47.980;18.780;2022-10-15T23:05:33;14.56;84.65
72326;DHT22;60278;47.980;18.780;2022-10-15T23:09:06;14.52;84.67
72326;DHT22;60278;47.980;18.780;2022-10-15T23:12:38;14.56;84.50
72326;DHT22;60278;47.980;18.780;2022-10-15T23:16:13;14.60;84.33
72326;DHT22;60278;47.980;18.780;2022-10-15T23:19:44;14.55;84.32
72326;DHT22;60278;47.980;18.780;2022-10-15T23:23:15;14.53;84.39
72326;DHT22;60278;47.980;18.780;2022-10-15T23:26:47;14.56;84.42
72326;DHT22;60278;47.980;18.780;2022-10-15T23:30:18;14.52;84.63
72326;DHT22;60278;47.980;18.780;2022-10-15T23:33:50;14.44;84.21
72326;DHT22;60278;47.980;18.780;2022-10-15T23:37:21;14.42;85.53
72326;DHT22;60278;47.980;18.780;2022-10-15T23:41:03;14.32;85.05
72326;DHT22;60278;47.980;18.780;2022-10-15T23:44:35;14.23;86.15
72326;DHT22;60278;47.980;18.780;2022-10-15T23:48:06;14.30;85.02
72326;DHT22;60278;47.980;18.780;2022-10-15T23:51:37;14.39;84.91
72326;DHT22;60278;47.980;18.780;2022-10-15T23:55:08;14.37;85.10
72326;DHT22;60278;47.980;18.780;2022-10-15T23:58:39;14.33;85.19
